createdAt,value
2017-08-20T05:59:45.256Z,99.90
2017-08-20T06:02:14.449Z,99.90
2017-08-20T06:04:43.578Z,99.90
2017-08-20T06:07:11.871Z,99.90
2017-08-20T06:09:40.942Z,99.90
2017-08-20T06:12:09.232Z,99.90
2017-08-20T06:14:37.568Z,99.90
2017-08-20T06:17:07.483Z,99.90
2017-08-20T06:19:36.623Z,99.90
2017-08-20T06:22:05.227Z,99.90
2017-08-20T06:24:33.546Z,99.90
2017-08-20T06:27:03.419Z,99.90
2017-08-20T06:29:31.754Z,99.90
2017-08-20T06:32:00.250Z,99.90
2017-08-20T06:34:28.878Z,99.90
2017-08-20T06:36:57.162Z,99.90
2017-08-20T06:39:25.806Z,99.90
2017-08-20T06:41:54.552Z,99.90
2017-08-20T06:44:23.475Z,99.90
2017-08-20T06:46:53.459Z,99.90
2017-08-20T06:49:21.736Z,99.90
2017-08-20T06:51:50.053Z,99.90
2017-08-20T06:54:19.537Z,99.90
2017-08-20T06:56:47.943Z,99.90
2017-08-20T06:59:17.835Z,99.90
2017-08-20T07:01:46.915Z,99.90
2017-08-20T07:04:15.317Z,99.90
2017-08-20T07:06:44.530Z,99.90
2017-08-20T07:09:13.144Z,99.90
2017-08-20T07:11:42.522Z,99.90
2017-08-20T07:14:12.210Z,99.90
2017-08-20T07:16:41.666Z,99.90
2017-08-20T07:19:11.610Z,99.80
2017-08-20T07:21:40.670Z,99.70
2017-08-20T07:24:09.052Z,99.70
2017-08-20T07:26:37.351Z,99.90
2017-08-20T07:29:06.427Z,99.00
2017-08-20T07:31:34.738Z,99.00
2017-08-20T07:34:03.820Z,98.90
2017-08-20T07:36:32.906Z,98.60
2017-08-20T07:39:01.218Z,98.40
2017-08-20T07:41:29.742Z,96.80
2017-08-20T07:44:00.751Z,96.30
2017-08-20T07:46:29.071Z,95.80
2017-08-20T07:48:57.699Z,96.40
2017-08-20T07:51:26.698Z,96.80
2017-08-20T07:53:55.482Z,96.80
2017-08-20T07:56:23.822Z,95.80
2017-08-20T07:58:52.727Z,95.80
2017-08-20T08:01:21.294Z,95.50
2017-08-20T08:03:49.566Z,96.00
2017-08-20T08:06:17.867Z,95.50
2017-08-20T08:08:46.144Z,95.00
2017-08-20T08:11:14.449Z,95.10
2017-08-20T08:13:43.162Z,94.00
2017-08-20T08:16:11.647Z,94.00
2017-08-20T08:18:40.007Z,92.60
2017-08-20T08:21:08.435Z,92.40
2017-08-20T08:23:37.389Z,92.40
2017-08-20T08:26:07.619Z,92.70
2017-08-20T08:28:36.666Z,91.30
2017-08-20T08:31:05.490Z,91.60
2017-08-20T08:33:35.743Z,92.20
2017-08-20T08:36:04.554Z,92.60
2017-08-20T08:38:33.128Z,92.60
2017-08-20T08:41:02.199Z,92.00
2017-08-20T08:43:30.520Z,92.40
2017-08-20T08:45:59.690Z,93.00
2017-08-20T08:48:27.955Z,92.20
2017-08-20T08:50:58.227Z,91.50
2017-08-20T08:53:27.637Z,91.80
2017-08-20T08:55:55.903Z,91.80
2017-08-20T08:58:24.519Z,91.30
2017-08-20T09:00:52.822Z,90.60
2017-08-20T09:03:22.730Z,89.00
2017-08-20T09:05:52.523Z,87.70
2017-08-20T09:08:20.871Z,87.70
2017-08-20T09:10:49.468Z,88.70
2017-08-20T09:13:19.524Z,90.10
2017-08-20T09:15:47.832Z,85.70
2017-08-20T09:18:17.176Z,86.40
2017-08-20T09:20:45.461Z,82.50
2017-08-20T09:23:14.044Z,86.00
2017-08-20T09:25:42.403Z,84.40
2017-08-20T09:28:11.777Z,97.20
2017-08-20T09:30:40.343Z,97.40
2017-08-20T09:35:38.659Z,83.10
2017-08-20T09:38:07.338Z,85.60
2017-08-20T09:40:35.627Z,85.80
2017-08-20T09:43:03.930Z,84.90
2017-08-20T09:45:33.328Z,79.60
2017-08-20T09:48:01.634Z,79.90
2017-08-20T09:50:30.629Z,78.60
2017-08-20T09:52:58.954Z,77.00
2017-08-20T09:57:59.308Z,79.00
2017-08-20T10:00:27.627Z,78.90
2017-08-20T10:02:56.006Z,79.60
2017-08-20T10:05:25.103Z,75.70
2017-08-20T10:07:53.695Z,75.60
2017-08-20T10:10:22.584Z,83.90
2017-08-20T10:12:50.871Z,72.70
2017-08-20T10:15:20.221Z,71.30
2017-08-20T10:17:50.389Z,70.10
2017-08-20T10:20:19.856Z,66.20
2017-08-20T10:22:48.136Z,66.80
2017-08-20T10:25:16.780Z,65.50
2017-08-20T10:27:46.210Z,67.80
2017-08-20T10:30:14.553Z,66.60
2017-08-20T10:32:42.869Z,69.00
2017-08-20T10:35:12.406Z,75.10
2017-08-20T10:37:40.973Z,75.00
2017-08-20T10:40:09.290Z,79.60
2017-08-20T10:42:38.654Z,81.70
2017-08-20T10:45:07.725Z,86.70
2017-08-20T10:47:36.062Z,86.40
2017-08-20T10:50:04.599Z,86.80
2017-08-20T10:52:33.032Z,89.00
2017-08-20T10:55:02.185Z,88.40
2017-08-20T10:57:30.783Z,87.10
2017-08-20T11:00:00.799Z,88.00
2017-08-20T11:02:29.127Z,95.50
2017-08-20T11:04:58.077Z,94.70
2017-08-20T11:07:26.361Z,92.10
2017-08-20T11:09:55.043Z,78.70
2017-08-20T11:12:24.197Z,78.60
2017-08-20T11:14:52.511Z,89.50
2017-08-20T11:17:21.717Z,62.90
2017-08-20T11:19:52.679Z,51.00
2017-08-20T11:22:20.977Z,51.40
2017-08-20T11:24:50.126Z,51.10
2017-08-20T11:27:18.414Z,48.50
2017-08-20T11:29:46.819Z,47.40
2017-08-20T11:32:15.506Z,46.40
2017-08-20T11:34:44.390Z,45.00
2017-08-20T11:37:12.691Z,46.30
2017-08-20T11:42:12.839Z,47.90
2017-08-20T11:44:41.210Z,48.30
2017-08-20T11:47:09.803Z,46.10
2017-08-20T11:49:39.244Z,52.30
2017-08-20T11:52:07.528Z,52.20
2017-08-20T11:57:05.680Z,46.60
2017-08-20T11:59:35.464Z,53.00
2017-08-20T12:02:03.806Z,52.30
2017-08-20T12:04:32.988Z,63.10
2017-08-20T12:07:01.599Z,42.50
2017-08-20T12:09:31.623Z,36.50
2017-08-20T12:12:01.403Z,34.80
2017-08-20T12:14:29.792Z,35.20
2017-08-20T12:16:58.103Z,33.00
2017-08-20T12:19:26.484Z,33.20
2017-08-20T12:21:55.572Z,33.30
2017-08-20T12:24:24.250Z,33.30
2017-08-20T12:26:52.580Z,35.00
2017-08-20T12:29:21.634Z,42.20
2017-08-20T12:31:49.989Z,42.20
2017-08-20T12:34:18.838Z,46.40
2017-08-20T12:36:47.412Z,50.40
2017-08-20T12:39:16.377Z,50.80
2017-08-20T12:41:44.639Z,50.60
2017-08-20T12:44:13.266Z,50.60
2017-08-20T12:46:41.653Z,53.00
2017-08-20T12:51:40.984Z,91.40
2017-08-20T12:54:09.288Z,40.90
2017-08-20T12:56:38.730Z,39.70
2017-08-20T12:59:08.863Z,34.90
2017-08-20T13:01:37.191Z,35.40
2017-08-20T13:04:05.502Z,39.00
2017-08-20T13:06:34.121Z,38.90
2017-08-20T13:09:02.447Z,37.90
2017-08-20T13:11:31.035Z,35.10
2017-08-20T13:13:59.389Z,35.00
2017-08-20T13:16:28.730Z,35.80
2017-08-20T13:18:57.862Z,35.40
2017-08-20T13:21:26.605Z,35.60
2017-08-20T13:23:56.103Z,45.70
2017-08-20T13:28:55.126Z,58.30
2017-08-20T13:31:23.507Z,33.30
2017-08-20T13:36:22.096Z,43.00
2017-08-20T13:38:51.928Z,29.40
2017-08-20T13:41:20.244Z,29.80
2017-08-20T13:43:50.155Z,47.00
2017-08-20T13:46:18.456Z,33.60
2017-08-20T13:48:47.002Z,37.80
2017-08-20T13:51:15.587Z,41.50
2017-08-20T13:53:43.917Z,62.80
2017-08-20T14:01:12.742Z,85.90
2017-08-20T14:03:41.082Z,44.60
2017-08-20T14:06:09.686Z,40.80
2017-08-20T14:08:38.975Z,40.70
2017-08-20T14:13:37.078Z,37.10
2017-08-20T14:16:05.401Z,39.30
2017-08-20T14:18:34.028Z,41.90
2017-08-20T14:21:02.644Z,50.50
2017-08-20T14:23:30.957Z,55.50
2017-08-20T14:26:00.110Z,56.80
2017-08-20T14:28:28.661Z,59.90
2017-08-20T14:30:58.230Z,56.80
2017-08-20T14:33:29.486Z,56.80
2017-08-20T14:35:58.420Z,53.50
2017-08-20T14:38:26.701Z,54.50
2017-08-20T14:40:55.026Z,95.40
2017-08-20T14:43:23.371Z,95.90
2017-08-20T14:45:52.012Z,95.80
2017-08-20T14:48:20.300Z,97.00
2017-08-20T14:50:48.626Z,59.70
2017-08-20T14:53:16.980Z,60.90
2017-08-20T14:55:46.056Z,74.60
2017-08-20T14:58:15.570Z,73.70
2017-08-20T15:05:44.351Z,97.40
2017-08-20T15:08:12.637Z,51.80
2017-08-20T15:10:41.268Z,47.10
2017-08-20T15:13:09.597Z,43.70
2017-08-20T15:15:38.416Z,43.20
2017-08-20T15:18:06.829Z,42.20
2017-08-20T15:20:35.209Z,39.70
2017-08-20T15:23:05.355Z,38.30
2017-08-20T15:25:33.643Z,35.80
2017-08-20T15:28:02.916Z,33.70
2017-08-20T15:30:31.269Z,33.70
2017-08-20T15:32:59.564Z,33.20
2017-08-20T15:35:29.192Z,32.40
2017-08-20T15:37:57.522Z,34.50
2017-08-20T15:40:25.882Z,54.50
2017-08-20T15:42:55.276Z,31.80
2017-08-20T15:45:25.102Z,32.30
2017-08-20T15:47:53.373Z,31.10
2017-08-20T15:50:22.040Z,32.20
2017-08-20T15:52:51.511Z,41.80
2017-08-20T16:00:20.682Z,57.00
2017-08-20T16:02:48.986Z,56.10
2017-08-20T16:05:17.592Z,41.00
2017-08-20T16:07:48.850Z,43.90
2017-08-20T16:10:17.754Z,45.70
2017-08-20T16:12:46.333Z,47.30
2017-08-20T16:15:15.410Z,55.10
2017-08-20T16:17:44.089Z,49.50
2017-08-20T16:20:13.198Z,49.80
2017-08-20T16:22:41.878Z,50.50
2017-08-20T16:25:10.487Z,51.60
2017-08-20T16:27:38.743Z,55.00
2017-08-20T16:30:07.052Z,55.40
2017-08-20T16:32:35.603Z,56.50
2017-08-20T16:35:03.915Z,58.30
2017-08-20T16:37:32.281Z,60.30
2017-08-20T16:40:00.883Z,62.10
2017-08-20T16:42:29.183Z,64.00
2017-08-20T16:44:57.512Z,65.50
2017-08-20T16:47:26.488Z,67.30
2017-08-20T16:49:54.826Z,94.20
2017-08-20T16:52:23.165Z,99.70
2017-08-20T16:57:22.534Z,99.90
2017-08-20T16:59:50.832Z,99.90
2017-08-20T17:02:19.509Z,99.90
2017-08-20T17:04:47.804Z,99.90
2017-08-20T17:07:17.324Z,99.90
2017-08-20T17:09:47.825Z,99.90
2017-08-20T17:12:16.134Z,99.90
2017-08-20T17:14:45.224Z,99.90
2017-08-20T17:17:14.311Z,99.90
2017-08-20T17:19:42.846Z,99.90
2017-08-20T17:22:11.383Z,99.90
2017-08-20T17:24:40.611Z,99.90
2017-08-20T17:27:08.932Z,99.90
2017-08-20T17:29:37.255Z,99.90
2017-08-20T17:32:06.214Z,99.90
